Time;durP1;ratioP1;P1;durP2;ratioP2;P2;SDS_P1;SDS_P2;PMS_P1;PMS_P2;Temp;Humidity;BMP_temperature;BMP_pressure;BME280_temperature;BME280_humidity;BME280_pressure;Samples;Min_cycle;Max_cycle;Signal;HPM_P1;HPM_P2
2022/11/09 00:01:42;;;;;;;36.92;5.60;;;;;;;;;;5049812;28;20033;-58
2022/11/09 00:04:09;;;;;;;39.53;6.20;;;;;;;;;;5051852;28;20028;-58
2022/11/09 00:06:37;;;;;;;33.35;6.07;;;;;;;;;;5051287;28;20368;-59
2022/11/09 00:09:05;;;;;;;31.08;6.80;;;;;;;;;;5051533;28;20029;-57
2022/11/09 00:11:32;;;;;;;38.17;8.00;;;;;;;;;;5052270;28;20139;-58
2022/11/09 00:13:59;;;;;;;38.58;8.70;;;;;;;;;;5051571;28;20020;-57
2022/11/09 00:16:26;;;;;;;45.47;9.13;;;;;;;;;;5050680;28;20036;-59
2022/11/09 00:18:54;;;;;;;41.60;9.65;;;;;;;;;;5050933;28;20025;-58
2022/11/09 00:21:23;;;;;;;48.70;9.95;;;;;;;;;;5050395;28;20052;-58
2022/11/09 00:23:50;;;;;;;54.45;10.45;;;;;;;;;;5049238;28;20060;-57
2022/11/09 00:26:18;;;;;;;42.83;10.27;;;;;;;;;;5050235;28;20067;-57
2022/11/09 00:28:44;;;;;;;46.22;9.63;;;;;;;;;;5044613;28;20025;-58
2022/11/09 00:31:13;;;;;;;37.65;9.55;;;;;;;;;;5031017;28;20033;-58
2022/11/09 00:33:40;;;;;;;49.13;9.38;;;;;;;;;;5044423;28;20031;-58
2022/11/09 00:36:08;;;;;;;49.20;9.80;;;;;;;;;;5051261;28;20478;-58
2022/11/09 00:38:35;;;;;;;57.85;9.95;;;;;;;;;;5051432;28;20044;-59
2022/11/09 00:41:03;;;;;;;51.17;9.25;;;;;;;;;;5049877;28;20445;-58
2022/11/09 00:43:30;;;;;;;54.50;9.98;;;;;;;;;;5050887;28;20052;-58
2022/11/09 00:45:57;;;;;;;53.95;9.95;;;;;;;;;;5050582;28;20926;-60
2022/11/09 00:48:24;;;;;;;69.05;10.18;;;;;;;;;;5050694;28;20134;-58
2022/11/09 00:50:55;;;;;;;77.18;12.77;;;;;;;;;;5050966;28;20044;-58
2022/11/09 00:53:23;;;;;;;86.25;17.45;;;;;;;;;;5051536;28;20072;-58
2022/11/09 00:55:56;;;;;;;94.88;21.27;;;;;;;;;;5051129;28;20112;-59
2022/11/09 00:58:24;;;;;;;117.38;24.83;;;;;;;;;;5050901;28;20072;-58
2022/11/09 01:00:52;;;;;;;109.57;25.38;;;;;;;;;;5032133;28;20022;-58
2022/11/09 01:03:19;;;;;;;130.85;26.60;;;;;;;;;;5042773;28;20490;-58
2022/11/09 01:05:47;;;;;;;102.97;26.92;;;;;;;;;;5050881;28;20025;-59
2022/11/09 01:08:15;;;;;;;92.38;26.48;;;;;;;;;;5063029;23;20138;-61
2022/11/09 01:10:46;;;;;;;92.82;24.35;;;;;;;;;;5033308;28;20494;-60
2022/11/09 01:13:15;;;;;;;91.33;25.10;;;;;;;;;;5046139;28;20036;-60
2022/11/09 01:15:43;;;;;;;92.82;22.33;;;;;;;;;;5045684;28;20039;-62
2022/11/09 01:18:10;;;;;;;74.03;21.35;;;;;;;;;;5047783;28;20100;-60
2022/11/09 01:20:41;;;;;;;82.57;20.95;;;;;;;;;;5049855;28;20029;-60
2022/11/09 01:23:09;;;;;;;72.55;20.20;;;;;;;;;;5050399;28;20424;-61
2022/11/09 01:25:36;;;;;;;79.20;20.05;;;;;;;;;;5050119;28;20056;-60
2022/11/09 01:28:04;;;;;;;65.88;19.15;;;;;;;;;;5046990;28;20411;-60
2022/11/09 01:30:33;;;;;;;74.18;19.88;;;;;;;;;;5028425;28;20039;-60
2022/11/09 01:33:03;;;;;;;71.50;18.08;;;;;;;;;;5025172;28;20025;-60
2022/11/09 01:35:32;;;;;;;58.78;17.25;;;;;;;;;;5053818;28;20074;-60
2022/11/09 01:37:59;;;;;;;61.58;16.67;;;;;;;;;;5046682;28;20494;-59
2022/11/09 01:40:29;;;;;;;55.17;16.17;;;;;;;;;;5051509;28;20592;-58
2022/11/09 01:42:57;;;;;;;68.85;16.55;;;;;;;;;;5054306;28;20496;-60
2022/11/09 01:45:26;;;;;;;63.22;15.50;;;;;;;;;;5054108;28;20116;-59
2022/11/09 01:47:57;;;;;;;72.90;15.90;;;;;;;;;;5052248;28;20040;-61
2022/11/09 01:50:29;;;;;;;54.43;14.23;;;;;;;;;;5052031;28;20545;-60
2022/11/09 01:52:56;;;;;;;47.83;13.97;;;;;;;;;;5051805;28;20029;-59
2022/11/09 01:55:24;;;;;;;47.55;12.88;;;;;;;;;;5051874;28;20268;-60
2022/11/09 01:57:51;;;;;;;59.70;13.10;;;;;;;;;;5051275;28;20108;-60
2022/11/09 02:00:18;;;;;;;57.17;13.18;;;;;;;;;;5052013;28;20029;-59
2022/11/09 02:02:51;;;;;;;48.25;11.63;;;;;;;;;;5049240;28;20040;-59
2022/11/09 02:05:21;;;;;;;33.47;10.68;;;;;;;;;;5053063;28;20082;-59
2022/11/09 02:07:49;;;;;;;44.25;12.30;;;;;;;;;;5051217;28;20508;-59
2022/11/09 02:10:32;;;;;;;38.00;11.55;;;;;;;;;;5051685;28;20048;-59
2022/11/09 02:13:00;;;;;;;45.15;11.38;;;;;;;;;;5051851;28;20060;-60
2022/11/09 02:15:27;;;;;;;31.75;9.75;;;;;;;;;;5051663;28;20037;-61
2022/11/09 02:17:55;;;;;;;37.33;9.60;;;;;;;;;;5049910;28;20032;-59
2022/11/09 02:20:22;;;;;;;37.72;10.15;;;;;;;;;;5052478;28;20021;-59
2022/11/09 02:22:49;;;;;;;35.58;9.27;;;;;;;;;;5052420;28;20040;-59
2022/11/09 02:25:17;;;;;;;32.22;9.43;;;;;;;;;;5049978;28;20513;-59
2022/11/09 02:27:45;;;;;;;36.13;9.90;;;;;;;;;;5052512;28;20363;-59
2022/11/09 02:30:13;;;;;;;29.70;8.48;;;;;;;;;;5052107;28;20025;-59
2022/11/09 02:32:40;;;;;;;31.67;8.82;;;;;;;;;;5052382;28;20025;-59
2022/11/09 02:35:07;;;;;;;31.65;7.10;;;;;;;;;;5052347;28;20031;-59
2022/11/09 02:37:39;;;;;;;33.65;9.00;;;;;;;;;;5052337;28;20028;-60
2022/11/09 02:40:32;;;;;;;34.13;7.90;;;;;;;;;;5052138;28;20025;-60
2022/11/09 02:43:00;;;;;;;23.92;6.93;;;;;;;;;;5044897;28;20502;-59
2022/11/09 02:45:27;;;;;;;25.75;6.95;;;;;;;;;;5052049;28;20040;-61
2022/11/09 02:47:54;;;;;;;25.73;7.72;;;;;;;;;;5051986;28;20029;-59
2022/11/09 02:50:22;;;;;;;28.30;7.80;;;;;;;;;;5051683;28;20051;-60
2022/11/09 02:52:49;;;;;;;27.00;6.57;;;;;;;;;;5047672;28;20099;-59
2022/11/09 02:55:16;;;;;;;26.40;7.70;;;;;;;;;;5051748;28;20040;-59
2022/11/09 02:57:43;;;;;;;26.67;6.43;;;;;;;;;;5051969;28;20025;-59
2022/11/09 03:00:10;;;;;;;23.30;5.90;;;;;;;;;;5051858;28;20032;-59
2022/11/09 03:02:37;;;;;;;21.67;5.78;;;;;;;;;;5052185;28;20385;-60
2022/11/09 03:05:05;;;;;;;18.52;5.97;;;;;;;;;;5046410;28;20545;-60
2022/11/09 03:07:32;;;;;;;21.80;6.07;;;;;;;;;;5033093;28;20477;-59
2022/11/09 03:09:59;;;;;;;22.45;5.70;;;;;;;;;;5032803;28;20046;-60
2022/11/09 03:12:28;;;;;;;26.05;5.95;;;;;;;;;;5033262;28;20029;-59
2022/11/09 03:15:00;;;;;;;24.35;6.10;;;;;;;;;;5033272;28;20053;-59
2022/11/09 03:17:27;;;;;;;17.88;5.50;;;;;;;;;;5033249;28;20036;-59
2022/11/09 03:19:54;;;;;;;21.25;5.63;;;;;;;;;;5032985;28;20029;-59
2022/11/09 03:22:21;;;;;;;21.42;5.20;;;;;;;;;;5033054;28;20021;-59
2022/11/09 03:24:49;;;;;;;21.00;4.70;;;;;;;;;;5032876;28;20034;-60
2022/11/09 03:27:16;;;;;;;21.95;5.55;;;;;;;;;;5033032;28;20021;-60
2022/11/09 03:29:42;;;;;;;19.60;4.88;;;;;;;;;;5032819;28;20083;-59
2022/11/09 03:32:10;;;;;;;20.80;4.95;;;;;;;;;;5032857;28;20048;-59
2022/11/09 03:34:37;;;;;;;15.85;4.50;;;;;;;;;;5032775;28;20022;-61
2022/11/09 03:37:04;;;;;;;21.42;4.90;;;;;;;;;;5032649;28;20422;-59
2022/11/09 03:39:32;;;;;;;16.75;5.68;;;;;;;;;;5032677;28;20357;-59
2022/11/09 03:41:59;;;;;;;17.88;5.15;;;;;;;;;;5032613;28;20057;-59
2022/11/09 03:44:26;;;;;;;18.17;4.82;;;;;;;;;;5032548;28;20386;-60
2022/11/09 03:46:53;;;;;;;17.95;5.13;;;;;;;;;;5032591;28;20025;-59
2022/11/09 03:49:22;;;;;;;15.55;4.85;;;;;;;;;;5032496;28;20049;-59
2022/11/09 03:51:50;;;;;;;14.10;4.57;;;;;;;;;;5032390;28;20025;-59
2022/11/09 03:54:17;;;;;;;14.40;4.45;;;;;;;;;;5032138;28;20485;-60
2022/11/09 03:56:44;;;;;;;17.60;4.90;;;;;;;;;;5046379;28;20086;-60
2022/11/09 03:59:11;;;;;;;20.58;5.47;;;;;;;;;;5032390;28;20022;-60
2022/11/09 04:01:38;;;;;;;16.60;4.82;;;;;;;;;;5032374;28;20025;-59
2022/11/09 04:04:05;;;;;;;14.45;4.63;;;;;;;;;;5032156;28;20033;-59
2022/11/09 04:06:32;;;;;;;13.73;4.40;;;;;;;;;;5047116;28;20041;-59
2022/11/09 04:08:59;;;;;;;16.83;4.35;;;;;;;;;;5050308;28;20056;-59
2022/11/09 04:11:26;;;;;;;15.20;4.47;;;;;;;;;;5039049;28;20029;-60
2022/11/09 04:13:53;;;;;;;13.57;4.60;;;;;;;;;;5050173;28;20021;-59
2022/11/09 04:16:20;;;;;;;11.23;4.43;;;;;;;;;;5048055;28;20075;-60
2022/11/09 04:18:46;;;;;;;12.82;4.35;;;;;;;;;;5050384;28;20524;-62
2022/11/09 04:21:13;;;;;;;13.32;3.72;;;;;;;;;;5050635;28;20025;-59
2022/11/09 04:23:40;;;;;;;12.18;4.50;;;;;;;;;;5050397;28;20063;-59
2022/11/09 04:26:07;;;;;;;13.52;4.30;;;;;;;;;;5050613;28;20025;-59
2022/11/09 04:28:34;;;;;;;14.48;4.22;;;;;;;;;;5039568;28;20037;-59
2022/11/09 04:31:02;;;;;;;12.50;4.20;;;;;;;;;;5035644;28;20025;-59
2022/11/09 04:33:29;;;;;;;9.50;4.35;;;;;;;;;;5050355;28;20024;-59
2022/11/09 04:36:01;;;;;;;12.32;3.67;;;;;;;;;;5048465;28;20030;-59
2022/11/09 04:38:28;;;;;;;8.07;3.90;;;;;;;;;;5031556;28;20025;-59
2022/11/09 04:40:55;;;;;;;12.32;4.28;;;;;;;;;;5033552;28;20056;-59
2022/11/09 04:43:21;;;;;;;10.30;3.78;;;;;;;;;;5043667;28;20487;-59
2022/11/09 04:45:48;;;;;;;11.45;3.80;;;;;;;;;;5031706;28;20029;-59
2022/11/09 04:48:15;;;;;;;11.45;3.78;;;;;;;;;;5031689;28;20017;-59
2022/11/09 04:53:46;;;;;;;8.07;3.45;;;;;;;;;;5021887;28;20108;-59
2022/11/09 04:56:13;;;;;;;9.32;3.70;;;;;;;;;;5042053;28;20059;-59
2022/11/09 04:58:40;;;;;;;10.88;4.32;;;;;;;;;;5034720;28;20144;-59
2022/11/09 05:01:08;;;;;;;11.60;3.72;;;;;;;;;;5031617;28;20376;-59
2022/11/09 05:03:35;;;;;;;13.65;3.78;;;;;;;;;;5031361;28;20037;-59
2022/11/09 05:06:30;;;;;;;8.02;3.53;;;;;;;;;;5034654;28;20395;-59
2022/11/09 05:12:06;;;;;;;10.23;3.78;;;;;;;;;;5020902;28;20048;-59
2022/11/09 05:14:33;;;;;;;9.10;3.30;;;;;;;;;;5035516;28;20029;-59
2022/11/09 05:17:00;;;;;;;10.57;3.85;;;;;;;;;;5051130;28;20036;-60
2022/11/09 05:19:27;;;;;;;11.52;3.67;;;;;;;;;;5053797;28;20128;-59
2022/11/09 05:21:54;;;;;;;10.90;3.35;;;;;;;;;;5053639;28;20036;-59
2022/11/09 05:24:21;;;;;;;9.70;3.33;;;;;;;;;;5053447;28;20033;-59
2022/11/09 05:26:48;;;;;;;8.65;3.33;;;;;;;;;;5053664;28;20029;-61
2022/11/09 05:29:14;;;;;;;9.43;3.70;;;;;;;;;;5053540;28;20040;-59
2022/11/09 05:31:41;;;;;;;7.32;3.20;;;;;;;;;;5053641;28;20037;-59
2022/11/09 05:34:13;;;;;;;7.72;2.58;;;;;;;;;;5054083;28;20473;-60
2022/11/09 05:36:39;;;;;;;9.65;3.58;;;;;;;;;;5035016;28;20041;-60
2022/11/09 05:39:06;;;;;;;9.48;3.50;;;;;;;;;;5034950;28;20059;-59
2022/11/09 05:41:33;;;;;;;9.85;3.40;;;;;;;;;;5034850;28;20177;-59
2022/11/09 05:44:00;;;;;;;7.68;3.17;;;;;;;;;;5034893;28;20044;-60
2022/11/09 05:46:27;;;;;;;9.68;3.15;;;;;;;;;;5034702;28;20056;-59
2022/11/09 05:48:54;;;;;;;9.02;3.08;;;;;;;;;;5034717;28;20120;-59
2022/11/09 05:51:21;;;;;;;9.65;3.30;;;;;;;;;;5048507;28;20035;-59
2022/11/09 05:53:48;;;;;;;9.82;3.08;;;;;;;;;;5052367;28;20033;-59
2022/11/09 05:56:16;;;;;;;8.10;3.08;;;;;;;;;;5047354;28;20064;-61
2022/11/09 05:58:43;;;;;;;7.07;2.80;;;;;;;;;;5036941;28;20544;-49
2022/11/09 06:01:11;;;;;;;10.90;3.30;;;;;;;;;;5038457;28;20026;-50
2022/11/09 06:03:40;;;;;;;9.40;2.65;;;;;;;;;;5034146;28;20518;-59
2022/11/09 06:06:08;;;;;;;9.90;3.50;;;;;;;;;;5033063;28;20045;-59
2022/11/09 06:08:35;;;;;;;9.10;2.50;;;;;;;;;;5033442;28;20040;-54
2022/11/09 06:11:03;;;;;;;9.00;2.90;;;;;;;;;;5033389;28;20049;-56
2022/11/09 06:13:30;;;;;;;9.85;2.40;;;;;;;;;;5034125;28;20479;-56
2022/11/09 06:15:59;;;;;;;7.30;2.42;;;;;;;;;;5033804;28;20048;-59
2022/11/09 06:18:26;;;;;;;9.18;2.30;;;;;;;;;;5042617;28;20505;-59
2022/11/09 06:20:54;;;;;;;10.15;2.60;;;;;;;;;;5046009;28;20036;-53
2022/11/09 06:23:25;;;;;;;7.78;2.38;;;;;;;;;;5052228;28;20513;-53
2022/11/09 06:26:02;;;;;;;8.63;2.63;;;;;;;;;;5052305;28;20064;-54
2022/11/09 06:28:29;;;;;;;10.60;2.47;;;;;;;;;;5050765;28;20104;-56
2022/11/09 06:31:00;;;;;;;8.05;2.40;;;;;;;;;;5052738;28;20493;-58
2022/11/09 06:33:27;;;;;;;8.55;2.13;;;;;;;;;;5053019;28;20382;-57
2022/11/09 06:35:54;;;;;;;8.50;2.78;;;;;;;;;;5052762;28;20086;-57
2022/11/09 06:38:21;;;;;;;9.25;2.30;;;;;;;;;;5051575;28;20108;-58
2022/11/09 06:40:51;;;;;;;11.60;2.50;;;;;;;;;;5052898;28;20566;-59
2022/11/09 06:43:18;;;;;;;6.82;2.47;;;;;;;;;;5052475;28;20055;-60
2022/11/09 06:45:45;;;;;;;7.75;2.17;;;;;;;;;;5052787;28;20024;-60
2022/11/09 06:48:12;;;;;;;7.47;2.28;;;;;;;;;;5051656;28;20074;-61
2022/11/09 06:50:39;;;;;;;6.15;2.03;;;;;;;;;;5051971;28;20033;-60
2022/11/09 06:53:07;;;;;;;7.63;2.15;;;;;;;;;;5053028;28;20028;-61
2022/11/09 06:55:34;;;;;;;5.85;2.10;;;;;;;;;;5052459;28;20068;-60
2022/11/09 06:58:06;;;;;;;5.20;2.15;;;;;;;;;;5051488;28;20127;-59
2022/11/09 07:00:33;;;;;;;7.82;2.47;;;;;;;;;;5051445;28;20441;-57
2022/11/09 07:02:59;;;;;;;6.35;2.28;;;;;;;;;;5052437;28;20392;-59
2022/11/09 07:05:26;;;;;;;6.25;1.90;;;;;;;;;;5052508;28;20116;-59
2022/11/09 07:07:53;;;;;;;8.90;2.13;;;;;;;;;;5051578;28;20128;-61
2022/11/09 07:10:20;;;;;;;5.43;1.70;;;;;;;;;;5051335;28;20490;-61
2022/11/09 07:12:47;;;;;;;7.40;2.13;;;;;;;;;;5051687;28;20028;-60
2022/11/09 07:15:14;;;;;;;8.43;2.20;;;;;;;;;;5052350;28;20044;-59
2022/11/09 07:17:41;;;;;;;6.07;1.83;;;;;;;;;;5051861;28;20029;-59
2022/11/09 07:20:09;;;;;;;8.20;1.95;;;;;;;;;;5051747;28;20128;-63
2022/11/09 07:22:40;;;;;;;12.88;2.05;;;;;;;;;;5042915;28;20025;-59
2022/11/09 07:25:08;;;;;;;8.50;1.88;;;;;;;;;;5040861;28;20124;-59
2022/11/09 07:27:35;;;;;;;7.13;2.13;;;;;;;;;;5048479;28;20040;-60
2022/11/09 07:30:03;;;;;;;6.63;2.10;;;;;;;;;;5052258;28;20055;-59
2022/11/09 07:32:33;;;;;;;7.18;2.33;;;;;;;;;;5052298;28;20048;-59
2022/11/09 07:35:00;;;;;;;7.53;2.10;;;;;;;;;;5051900;28;20075;-58
2022/11/09 07:37:27;;;;;;;5.22;2.05;;;;;;;;;;5052104;28;20546;-59
2022/11/09 07:39:53;;;;;;;4.78;1.70;;;;;;;;;;5052270;28;20033;-59
2022/11/09 07:42:20;;;;;;;4.03;1.92;;;;;;;;;;5036138;28;20025;-58
2022/11/09 07:44:47;;;;;;;8.27;2.25;;;;;;;;;;5032630;28;20033;-58
2022/11/09 07:47:14;;;;;;;10.00;1.80;;;;;;;;;;5032375;28;20029;-58
2022/11/09 07:49:41;;;;;;;6.68;1.80;;;;;;;;;;5032256;28;20041;-59
2022/11/09 07:52:08;;;;;;;6.60;1.48;;;;;;;;;;5032529;28;20025;-58
2022/11/09 07:54:35;;;;;;;6.20;2.10;;;;;;;;;;5032566;28;20439;-57
2022/11/09 07:57:02;;;;;;;5.80;1.80;;;;;;;;;;5046274;28;20083;-58
2022/11/09 07:59:30;;;;;;;4.45;1.92;;;;;;;;;;5032284;28;20034;-58
2022/11/09 08:01:57;;;;;;;4.53;1.63;;;;;;;;;;5032366;28;20037;-59
2022/11/09 08:04:24;;;;;;;5.30;1.85;;;;;;;;;;5032307;28;20052;-58
2022/11/09 08:06:52;;;;;;;5.55;2.05;;;;;;;;;;5032202;28;20033;-59
2022/11/09 08:09:19;;;;;;;7.05;1.85;;;;;;;;;;5032303;28;20064;-57
2022/11/09 08:11:46;;;;;;;6.00;1.58;;;;;;;;;;5032068;28;20057;-59
2022/11/09 08:14:14;;;;;;;4.20;1.67;;;;;;;;;;5032203;28;20112;-58
2022/11/09 08:16:41;;;;;;;5.53;2.03;;;;;;;;;;5032097;28;20040;-59
2022/11/09 08:19:09;;;;;;;5.57;1.73;;;;;;;;;;5032075;28;20055;-58
2022/11/09 08:21:36;;;;;;;7.65;1.65;;;;;;;;;;5032153;28;20053;-59
2022/11/09 08:24:04;;;;;;;6.43;1.60;;;;;;;;;;5032009;28;20037;-58
2022/11/09 08:29:35;;;;;;;4.70;1.63;;;;;;;;;;5027207;28;20048;-58
2022/11/09 08:32:02;;;;;;;6.35;1.52;;;;;;;;;;5023592;28;20040;-58
2022/11/09 08:34:29;;;;;;;5.35;1.70;;;;;;;;;;5031857;28;20529;-58
2022/11/09 08:36:59;;;;;;;4.22;1.52;;;;;;;;;;5031867;28;20029;-59
2022/11/09 08:39:26;;;;;;;4.75;1.48;;;;;;;;;;5031709;28;20034;-59
2022/11/09 08:41:53;;;;;;;3.85;1.42;;;;;;;;;;5031858;28;20031;-58
2022/11/09 08:44:21;;;;;;;4.78;1.77;;;;;;;;;;5030336;28;20037;-58
2022/11/09 08:46:48;;;;;;;2.90;1.50;;;;;;;;;;5031716;28;20041;-58
2022/11/09 08:49:15;;;;;;;5.10;1.60;;;;;;;;;;5031463;28;20065;-57
2022/11/09 08:51:42;;;;;;;6.28;1.67;;;;;;;;;;5031586;28;20115;-58
2022/11/09 08:54:10;;;;;;;5.90;1.85;;;;;;;;;;5031647;28;20395;-57
2022/11/09 08:56:37;;;;;;;5.75;1.70;;;;;;;;;;5045557;28;20530;-56
2022/11/09 08:59:04;;;;;;;4.45;1.55;;;;;;;;;;5031655;28;20036;-58
2022/11/09 09:01:31;;;;;;;4.75;1.52;;;;;;;;;;5031619;28;20034;-58
2022/11/09 09:03:58;;;;;;;8.10;1.77;;;;;;;;;;5031375;28;20029;-60
2022/11/09 09:06:24;;;;;;;4.28;1.70;;;;;;;;;;5031595;28;20068;-59
2022/11/09 09:08:51;;;;;;;6.32;1.63;;;;;;;;;;5031542;28;20033;-57
2022/11/09 09:11:18;;;;;;;8.82;1.80;;;;;;;;;;5031361;28;20136;-59
2022/11/09 09:13:45;;;;;;;5.13;1.40;;;;;;;;;;5031383;28;20387;-58
2022/11/09 09:16:13;;;;;;;4.90;1.50;;;;;;;;;;5031564;28;20029;-56
2022/11/09 09:18:40;;;;;;;5.07;1.60;;;;;;;;;;5031390;28;20502;-56
2022/11/09 09:21:09;;;;;;;5.47;1.33;;;;;;;;;;5030096;28;20119;-58
2022/11/09 09:23:35;;;;;;;6.97;1.45;;;;;;;;;;5031404;28;20542;-58
2022/11/09 09:26:03;;;;;;;4.75;1.60;;;;;;;;;;5031356;28;20112;-56
2022/11/09 09:28:30;;;;;;;5.10;1.63;;;;;;;;;;5031235;28;20108;-58
2022/11/09 09:31:00;;;;;;;3.45;1.42;;;;;;;;;;5031209;28;20029;-57
2022/11/09 09:33:27;;;;;;;4.72;1.45;;;;;;;;;;5031365;28;20379;-59
2022/11/09 09:35:58;;;;;;;8.75;1.70;;;;;;;;;;5031251;28;20044;-59
2022/11/09 09:38:25;;;;;;;7.60;1.92;;;;;;;;;;5031229;28;20048;-59
2022/11/09 09:41:02;;;;;;;7.43;1.67;;;;;;;;;;5030549;28;20026;-59
2022/11/09 09:43:37;;;;;;;8.25;1.70;;;;;;;;;;5031128;28;20294;-58
2022/11/09 09:46:05;;;;;;;9.38;1.70;;;;;;;;;;5031195;28;20041;-59
2022/11/09 09:48:41;;;;;;;7.55;1.70;;;;;;;;;;5031062;28;20030;-57
2022/11/09 09:51:13;;;;;;;10.85;1.88;;;;;;;;;;5032487;28;20025;-58
2022/11/09 09:53:43;;;;;;;9.48;1.70;;;;;;;;;;5034590;28;20087;-59
2022/11/09 09:56:30;;;;;;;8.35;2.13;;;;;;;;;;5044918;28;20052;-59
2022/11/09 09:59:03;;;;;;;14.45;2.40;;;;;;;;;;5035055;28;20024;-59
2022/11/09 10:01:44;;;;;;;9.07;2.13;;;;;;;;;;5034621;28;20514;-58
2022/11/09 10:04:14;;;;;;;8.57;1.95;;;;;;;;;;5020884;28;20076;-58
2022/11/09 10:06:48;;;;;;;10.48;2.53;;;;;;;;;;5034499;28;20037;-58
2022/11/09 10:09:23;;;;;;;12.25;2.30;;;;;;;;;;5034469;28;20037;-58
2022/11/09 10:11:55;;;;;;;9.70;1.77;;;;;;;;;;5034235;28;20057;-59
2022/11/09 10:14:22;;;;;;;7.70;1.90;;;;;;;;;;5034492;28;20056;-59
2022/11/09 10:16:53;;;;;;;8.20;1.98;;;;;;;;;;5034163;28;20033;-59
2022/11/09 10:19:32;;;;;;;10.23;1.95;;;;;;;;;;5034513;28;20395;-58
2022/11/09 10:22:12;;;;;;;13.20;2.33;;;;;;;;;;5034238;28;20049;-58
2022/11/09 10:24:57;;;;;;;11.40;2.72;;;;;;;;;;5034143;28;20390;-59
2022/11/09 10:27:30;;;;;;;14.07;2.65;;;;;;;;;;5033968;28;20043;-58
2022/11/09 10:29:59;;;;;;;21.63;2.92;;;;;;;;;;5034132;28;20032;-59
2022/11/09 10:32:28;;;;;;;16.38;2.83;;;;;;;;;;5034023;28;20029;-59
2022/11/09 10:35:03;;;;;;;13.02;2.45;;;;;;;;;;5033986;28;20022;-59
2022/11/09 10:37:45;;;;;;;24.85;3.50;;;;;;;;;;5033815;28;20107;-58
2022/11/09 10:40:35;;;;;;;21.88;3.00;;;;;;;;;;5033866;28;20041;-58
2022/11/09 10:43:06;;;;;;;22.38;2.67;;;;;;;;;;5030725;28;20033;-59
2022/11/09 10:45:34;;;;;;;26.00;2.42;;;;;;;;;;5033698;28;20032;-58
2022/11/09 10:48:02;;;;;;;20.35;3.03;;;;;;;;;;5031874;28;20518;-58
2022/11/09 10:50:35;;;;;;;18.83;2.72;;;;;;;;;;5032312;28;20431;-58
2022/11/09 10:53:08;;;;;;;19.63;3.38;;;;;;;;;;5033523;28;20034;-58
2022/11/09 10:55:35;;;;;;;24.60;3.15;;;;;;;;;;5039158;28;20028;-59
2022/11/09 10:58:02;;;;;;;31.15;3.40;;;;;;;;;;5041835;28;20112;-59
2022/11/09 11:00:29;;;;;;;26.38;3.65;;;;;;;;;;5033325;28;20017;-58
2022/11/09 11:02:56;;;;;;;28.30;3.60;;;;;;;;;;5033310;28;20438;-59
2022/11/09 11:05:25;;;;;;;29.98;4.30;;;;;;;;;;5033284;28;20079;-59
2022/11/09 11:07:52;;;;;;;29.42;3.90;;;;;;;;;;5033413;28;20558;-58
2022/11/09 11:10:20;;;;;;;31.88;4.03;;;;;;;;;;5033013;28;20045;-58
2022/11/09 11:13:02;;;;;;;32.92;4.13;;;;;;;;;;5033351;28;20037;-59
2022/11/09 11:15:32;;;;;;;38.83;4.43;;;;;;;;;;5033117;28;20026;-59
2022/11/09 11:18:03;;;;;;;34.78;5.03;;;;;;;;;;5033125;28;20030;-59
2022/11/09 11:20:32;;;;;;;27.95;4.35;;;;;;;;;;5033022;28;20025;-59
2022/11/09 11:23:17;;;;;;;36.22;4.90;;;;;;;;;;5033071;28;20383;-59
2022/11/09 11:25:54;;;;;;;36.10;4.40;;;;;;;;;;5032749;28;20137;-59
2022/11/09 11:28:30;;;;;;;34.92;5.05;;;;;;;;;;5033023;28;20101;-59
2022/11/09 11:30:57;;;;;;;46.08;5.03;;;;;;;;;;5032894;28;20057;-58
2022/11/09 11:33:25;;;;;;;36.03;5.03;;;;;;;;;;5031637;28;20044;-59
2022/11/09 11:36:10;;;;;;;33.72;4.45;;;;;;;;;;5032478;28;20034;-57
2022/11/09 11:38:37;;;;;;;42.35;5.10;;;;;;;;;;5032854;28;20051;-58
2022/11/09 11:41:12;;;;;;;43.72;4.90;;;;;;;;;;5031356;28;20021;-58
2022/11/09 11:43:55;;;;;;;29.65;4.45;;;;;;;;;;5032621;28;20037;-58
2022/11/09 11:46:22;;;;;;;41.95;5.43;;;;;;;;;;5032443;28;20364;-57
2022/11/09 11:48:49;;;;;;;40.92;5.50;;;;;;;;;;5032622;28;20026;-59
2022/11/09 11:51:23;;;;;;;39.78;5.15;;;;;;;;;;5032518;28;20037;-59
2022/11/09 11:54:16;;;;;;;41.97;4.75;;;;;;;;;;5032589;28;20032;-59
2022/11/09 11:57:03;;;;;;;30.55;4.10;;;;;;;;;;5045050;28;20854;-59
2022/11/09 11:59:43;;;;;;;30.52;4.40;;;;;;;;;;5021395;28;20083;-59
2022/11/09 12:02:39;;;;;;;27.92;3.85;;;;;;;;;;5032320;28;20475;-59
2022/11/09 12:05:06;;;;;;;31.75;4.15;;;;;;;;;;5020032;28;20045;-60
2022/11/09 12:07:39;;;;;;;30.45;4.10;;;;;;;;;;5038447;28;20056;-58
2022/11/09 12:10:14;;;;;;;29.45;3.80;;;;;;;;;;5032064;28;20372;-58
2022/11/09 12:12:44;;;;;;;35.05;4.00;;;;;;;;;;5039235;28;20059;-59
2022/11/09 12:15:18;;;;;;;32.22;4.32;;;;;;;;;;5040452;28;20048;-58
2022/11/09 12:17:45;;;;;;;29.23;4.05;;;;;;;;;;5032006;28;20033;-58
2022/11/09 12:20:15;;;;;;;33.50;4.43;;;;;;;;;;5032212;28;20060;-58
2022/11/09 12:22:58;;;;;;;34.75;4.10;;;;;;;;;;5032020;28;20383;-59
2022/11/09 12:25:30;;;;;;;24.58;4.05;;;;;;;;;;5031950;28;20037;-58
2022/11/09 12:28:02;;;;;;;31.60;4.57;;;;;;;;;;5029372;28;20022;-60
2022/11/09 12:30:40;;;;;;;34.95;4.63;;;;;;;;;;5045071;28;20037;-59
2022/11/09 12:33:10;;;;;;;25.85;4.07;;;;;;;;;;5050441;28;20064;-60
2022/11/09 12:35:43;;;;;;;37.55;4.30;;;;;;;;;;5035103;28;20025;-56
2022/11/09 12:38:15;;;;;;;31.27;4.70;;;;;;;;;;5048399;28;20032;-57
2022/11/09 12:40:50;;;;;;;42.15;5.57;;;;;;;;;;5049662;28;20045;-56
2022/11/09 12:43:52;;;;;;;39.30;5.40;;;;;;;;;;5050948;28;20079;-58
2022/11/09 12:46:22;;;;;;;50.40;5.68;;;;;;;;;;4992950;28;20034;-60
2022/11/09 12:48:49;;;;;;;50.03;5.82;;;;;;;;;;5033320;28;20048;-59
2022/11/09 12:51:17;;;;;;;50.03;6.20;;;;;;;;;;5049036;28;20029;-59
2022/11/09 12:53:44;;;;;;;45.75;5.20;;;;;;;;;;5050695;28;20025;-59
2022/11/09 12:56:11;;;;;;;76.68;7.57;;;;;;;;;;5047449;28;20029;-58
2022/11/09 12:58:38;;;;;;;71.35;7.20;;;;;;;;;;5043433;28;20060;-60
2022/11/09 13:01:07;;;;;;;64.75;6.50;;;;;;;;;;5041038;28;20495;-61
2022/11/09 13:03:35;;;;;;;76.63;7.47;;;;;;;;;;5050207;28;20033;-59
2022/11/09 13:06:16;;;;;;;69.00;8.70;;;;;;;;;;5050685;28;20124;-60
2022/11/09 13:08:45;;;;;;;84.07;8.15;;;;;;;;;;5047962;28;20391;-60
2022/11/09 13:11:18;;;;;;;73.80;8.52;;;;;;;;;;5047290;28;20090;-59
2022/11/09 13:13:45;;;;;;;87.15;8.73;;;;;;;;;;5047862;28;20033;-60
2022/11/09 13:16:12;;;;;;;72.43;8.00;;;;;;;;;;5044528;28;20107;-59
2022/11/09 13:18:39;;;;;;;58.78;7.30;;;;;;;;;;5045301;28;20064;-58
2022/11/09 13:21:26;;;;;;;65.22;7.78;;;;;;;;;;5035910;28;20119;-59
2022/11/09 13:23:53;;;;;;;72.22;8.02;;;;;;;;;;5030749;28;20045;-60
2022/11/09 13:26:33;;;;;;;73.35;8.30;;;;;;;;;;5043002;28;20033;-59
2022/11/09 13:29:09;;;;;;;63.13;7.55;;;;;;;;;;5034531;28;20113;-60
2022/11/09 13:31:54;;;;;;;71.97;8.85;;;;;;;;;;5034869;28;20033;-59
2022/11/09 13:34:39;;;;;;;56.95;7.85;;;;;;;;;;5047823;28;20037;-59
2022/11/09 13:37:24;;;;;;;62.22;8.20;;;;;;;;;;5042027;28;20052;-60
2022/11/09 13:39:51;;;;;;;77.68;8.50;;;;;;;;;;5034124;28;20399;-58
2022/11/09 13:42:25;;;;;;;58.83;7.50;;;;;;;;;;5033360;28;20021;-55
2022/11/09 13:44:53;;;;;;;69.32;8.25;;;;;;;;;;5033761;28;20068;-58
2022/11/09 13:47:25;;;;;;;57.00;8.20;;;;;;;;;;5034105;28;20112;-60
2022/11/09 13:49:52;;;;;;;59.33;7.18;;;;;;;;;;5033564;28;20052;-56
2022/11/09 13:52:37;;;;;;;69.75;8.00;;;;;;;;;;5034430;28;20022;-58
2022/11/09 13:55:12;;;;;;;61.53;8.13;;;;;;;;;;5033584;28;20017;-59
2022/11/09 13:57:40;;;;;;;66.20;8.38;;;;;;;;;;5051776;28;20107;-58
2022/11/09 14:00:17;;;;;;;65.10;8.05;;;;;;;;;;5033633;28;20479;-56
2022/11/09 14:02:52;;;;;;;91.85;9.45;;;;;;;;;;5032920;28;20033;-56
2022/11/09 14:05:24;;;;;;;63.53;8.65;;;;;;;;;;5033308;28;20033;-56
2022/11/09 14:07:53;;;;;;;74.35;8.27;;;;;;;;;;5045900;28;20037;-62
2022/11/09 14:10:34;;;;;;;90.53;9.70;;;;;;;;;;5034546;28;20087;-60
2022/11/09 14:13:04;;;;;;;61.80;8.32;;;;;;;;;;5034298;28;20495;-58
2022/11/09 14:15:31;;;;;;;65.65;7.90;;;;;;;;;;5033233;28;20505;-57
2022/11/09 14:18:15;;;;;;;73.88;9.55;;;;;;;;;;5042460;28;20108;-58
2022/11/09 14:20:42;;;;;;;85.22;9.27;;;;;;;;;;5049215;28;20083;-57
2022/11/09 14:23:15;;;;;;;76.18;8.18;;;;;;;;;;5052329;28;20056;-56
2022/11/09 14:25:42;;;;;;;69.72;9.52;;;;;;;;;;5050846;28;20028;-55
2022/11/09 14:28:22;;;;;;;102.57;9.98;;;;;;;;;;5047953;28;20367;-61
2022/11/09 14:30:50;;;;;;;98.07;10.15;;;;;;;;;;5046508;28;20093;-60
2022/11/09 14:33:21;;;;;;;85.78;9.75;;;;;;;;;;5033819;28;20029;-58
2022/11/09 14:35:49;;;;;;;89.18;12.05;;;;;;;;;;5033616;28;20025;-60
2022/11/09 14:38:20;;;;;;;104.30;11.52;;;;;;;;;;5032103;28;20022;-59
2022/11/09 14:40:48;;;;;;;97.07;11.52;;;;;;;;;;5032429;28;20029;-56
2022/11/09 14:43:19;;;;;;;92.93;11.23;;;;;;;;;;5033476;28;20029;-58
2022/11/09 14:45:56;;;;;;;81.20;10.00;;;;;;;;;;5033321;28;20033;-56
2022/11/09 14:48:26;;;;;;;83.78;10.52;;;;;;;;;;5037528;28;20037;-55
2022/11/09 14:50:55;;;;;;;75.05;10.52;;;;;;;;;;5051814;28;20037;-58
2022/11/09 14:53:25;;;;;;;77.57;10.10;;;;;;;;;;5050402;28;20491;-57
2022/11/09 14:55:53;;;;;;;75.20;9.93;;;;;;;;;;5050104;28;20025;-58